sensor_id;sensor_type;location;lat;lon;timestamp;P1;durP1;ratioP1;P2;durP2;ratioP2
80185;SDS011;69904;52.122;5.422;2024-01-25T00:02:09;15.15;;;1.90;;
80185;SDS011;69904;52.122;5.422;2024-01-25T00:04:36;15.55;;;2.83;;
80185;SDS011;69904;52.122;5.422;2024-01-25T00:07:02;14.10;;;2.20;;
80185;SDS011;69904;52.122;5.422;2024-01-25T00:09:29;11.05;;;1.90;;
80185;SDS011;69904;52.122;5.422;2024-01-25T00:11:55;10.68;;;2.25;;
80185;SDS011;69904;52.122;5.422;2024-01-25T00:14:22;11.80;;;2.15;;
80185;SDS011;69904;52.122;5.422;2024-01-25T00:16:48;16.70;;;2.90;;
80185;SDS011;69904;52.122;5.422;2024-01-25T00:19:15;15.18;;;2.38;;
80185;SDS011;69904;52.122;5.422;2024-01-25T00:21:42;15.48;;;2.45;;
80185;SDS011;69904;52.122;5.422;2024-01-25T00:24:13;13.55;;;1.98;;
80185;SDS011;69904;52.122;5.422;2024-01-25T00:26:39;12.68;;;1.77;;
80185;SDS011;69904;52.122;5.422;2024-01-25T00:29:06;8.18;;;1.45;;
80185;SDS011;69904;52.122;5.422;2024-01-25T00:31:32;7.82;;;1.60;;
80185;SDS011;69904;52.122;5.422;2024-01-25T00:34:00;13.73;;;3.22;;
80185;SDS011;69904;52.122;5.422;2024-01-25T00:36:29;11.27;;;2.17;;
80185;SDS011;69904;52.122;5.422;2024-01-25T00:38:55;10.75;;;2.13;;
80185;SDS011;69904;52.122;5.422;2024-01-25T00:41:22;7.75;;;1.40;;
80185;SDS011;69904;52.122;5.422;2024-01-25T00:43:49;11.88;;;2.03;;
80185;SDS011;69904;52.122;5.422;2024-01-25T00:46:16;8.93;;;1.67;;
80185;SDS011;69904;52.122;5.422;2024-01-25T00:48:43;12.52;;;2.33;;
80185;SDS011;69904;52.122;5.422;2024-01-25T00:51:14;14.13;;;2.38;;
80185;SDS011;69904;52.122;5.422;2024-01-25T00:53:42;6.97;;;1.77;;
80185;SDS011;69904;52.122;5.422;2024-01-25T00:58:36;11.40;;;1.88;;
80185;SDS011;69904;52.122;5.422;2024-01-25T01:01:03;11.43;;;2.10;;
80185;SDS011;69904;52.122;5.422;2024-01-25T01:03:30;20.20;;;2.17;;
80185;SDS011;69904;52.122;5.422;2024-01-25T01:05:57;14.70;;;2.10;;
80185;SDS011;69904;52.122;5.422;2024-01-25T01:08:24;12.13;;;2.53;;
80185;SDS011;69904;52.122;5.422;2024-01-25T01:10:52;7.68;;;2.60;;
80185;SDS011;69904;52.122;5.422;2024-01-25T01:13:18;12.70;;;2.17;;
80185;SDS011;69904;52.122;5.422;2024-01-25T01:15:45;13.05;;;2.03;;
80185;SDS011;69904;52.122;5.422;2024-01-25T01:18:12;10.45;;;1.80;;
80185;SDS011;69904;52.122;5.422;2024-01-25T01:20:38;9.35;;;2.55;;
80185;SDS011;69904;52.122;5.422;2024-01-25T01:23:05;10.90;;;1.75;;
80185;SDS011;69904;52.122;5.422;2024-01-25T01:25:31;12.50;;;1.58;;
80185;SDS011;69904;52.122;5.422;2024-01-25T01:27:58;18.35;;;2.95;;
80185;SDS011;69904;52.122;5.422;2024-01-25T01:30:24;11.63;;;1.98;;
80185;SDS011;69904;52.122;5.422;2024-01-25T01:32:51;16.83;;;2.42;;
80185;SDS011;69904;52.122;5.422;2024-01-25T01:35:18;10.57;;;2.17;;
80185;SDS011;69904;52.122;5.422;2024-01-25T01:37:44;11.02;;;2.35;;
80185;SDS011;69904;52.122;5.422;2024-01-25T01:40:10;13.00;;;2.33;;
80185;SDS011;69904;52.122;5.422;2024-01-25T01:42:37;16.52;;;2.33;;
80185;SDS011;69904;52.122;5.422;2024-01-25T01:45:04;10.27;;;3.10;;
80185;SDS011;69904;52.122;5.422;2024-01-25T01:47:31;10.73;;;1.80;;
80185;SDS011;69904;52.122;5.422;2024-01-25T01:49:57;6.65;;;1.25;;
80185;SDS011;69904;52.122;5.422;2024-01-25T01:52:24;8.48;;;1.70;;
80185;SDS011;69904;52.122;5.422;2024-01-25T01:54:51;14.02;;;2.35;;
80185;SDS011;69904;52.122;5.422;2024-01-25T01:57:18;14.07;;;2.20;;
80185;SDS011;69904;52.122;5.422;2024-01-25T01:59:45;10.18;;;2.53;;
80185;SDS011;69904;52.122;5.422;2024-01-25T02:02:12;12.70;;;1.98;;
80185;SDS011;69904;52.122;5.422;2024-01-25T02:04:38;10.80;;;1.67;;
80185;SDS011;69904;52.122;5.422;2024-01-25T02:07:05;12.63;;;2.33;;
80185;SDS011;69904;52.122;5.422;2024-01-25T02:09:32;8.30;;;1.73;;
80185;SDS011;69904;52.122;5.422;2024-01-25T02:12:02;8.32;;;1.73;;
80185;SDS011;69904;52.122;5.422;2024-01-25T02:14:30;9.43;;;2.35;;
80185;SDS011;69904;52.122;5.422;2024-01-25T02:16:57;12.30;;;1.98;;
80185;SDS011;69904;52.122;5.422;2024-01-25T02:19:24;3.97;;;1.33;;
80185;SDS011;69904;52.122;5.422;2024-01-25T02:21:51;12.45;;;2.45;;
80185;SDS011;69904;52.122;5.422;2024-01-25T02:24:20;17.88;;;2.28;;
80185;SDS011;69904;52.122;5.422;2024-01-25T02:26:46;7.88;;;2.13;;
80185;SDS011;69904;52.122;5.422;2024-01-25T02:29:13;9.10;;;1.73;;
80185;SDS011;69904;52.122;5.422;2024-01-25T02:31:39;12.00;;;2.33;;
80185;SDS011;69904;52.122;5.422;2024-01-25T02:34:06;13.25;;;1.55;;
80185;SDS011;69904;52.122;5.422;2024-01-25T02:36:32;7.63;;;1.85;;
80185;SDS011;69904;52.122;5.422;2024-01-25T02:38:59;8.70;;;1.65;;
80185;SDS011;69904;52.122;5.422;2024-01-25T02:41:28;11.35;;;2.25;;
80185;SDS011;69904;52.122;5.422;2024-01-25T02:43:56;8.77;;;2.35;;
80185;SDS011;69904;52.122;5.422;2024-01-25T02:46:22;9.00;;;1.98;;
80185;SDS011;69904;52.122;5.422;2024-01-25T02:48:49;8.68;;;1.70;;
80185;SDS011;69904;52.122;5.422;2024-01-25T02:51:16;12.43;;;2.28;;
80185;SDS011;69904;52.122;5.422;2024-01-25T02:53:43;8.80;;;2.03;;
80185;SDS011;69904;52.122;5.422;2024-01-25T02:56:10;9.75;;;1.77;;
80185;SDS011;69904;52.122;5.422;2024-01-25T02:58:36;10.57;;;2.20;;
80185;SDS011;69904;52.122;5.422;2024-01-25T03:01:03;15.15;;;2.13;;
80185;SDS011;69904;52.122;5.422;2024-01-25T03:03:29;9.77;;;1.83;;
80185;SDS011;69904;52.122;5.422;2024-01-25T03:05:56;8.27;;;2.00;;
80185;SDS011;69904;52.122;5.422;2024-01-25T03:08:22;11.15;;;2.08;;
80185;SDS011;69904;52.122;5.422;2024-01-25T03:10:49;4.47;;;1.48;;
80185;SDS011;69904;52.122;5.422;2024-01-25T03:13:16;6.85;;;1.35;;
80185;SDS011;69904;52.122;5.422;2024-01-25T03:15:43;10.82;;;2.03;;
80185;SDS011;69904;52.122;5.422;2024-01-25T03:18:10;12.48;;;2.42;;
80185;SDS011;69904;52.122;5.422;2024-01-25T03:20:37;13.48;;;2.58;;
80185;SDS011;69904;52.122;5.422;2024-01-25T03:23:04;8.63;;;1.95;;
80185;SDS011;69904;52.122;5.422;2024-01-25T03:25:30;13.65;;;2.10;;
80185;SDS011;69904;52.122;5.422;2024-01-25T03:27:57;9.50;;;2.28;;
80185;SDS011;69904;52.122;5.422;2024-01-25T03:30:24;6.60;;;1.45;;
80185;SDS011;69904;52.122;5.422;2024-01-25T03:32:50;15.23;;;2.63;;
80185;SDS011;69904;52.122;5.422;2024-01-25T03:35:17;8.13;;;2.65;;
80185;SDS011;69904;52.122;5.422;2024-01-25T03:37:44;10.60;;;2.10;;
80185;SDS011;69904;52.122;5.422;2024-01-25T03:40:10;11.45;;;1.88;;
80185;SDS011;69904;52.122;5.422;2024-01-25T03:42:37;8.95;;;1.63;;
80185;SDS011;69904;52.122;5.422;2024-01-25T03:45:04;11.77;;;1.75;;
80185;SDS011;69904;52.122;5.422;2024-01-25T03:47:31;8.55;;;1.52;;
80185;SDS011;69904;52.122;5.422;2024-01-25T03:49:57;11.25;;;2.13;;
80185;SDS011;69904;52.122;5.422;2024-01-25T03:52:24;8.60;;;2.20;;
80185;SDS011;69904;52.122;5.422;2024-01-25T03:54:51;11.38;;;1.95;;
80185;SDS011;69904;52.122;5.422;2024-01-25T03:57:17;9.88;;;2.35;;
80185;SDS011;69904;52.122;5.422;2024-01-25T03:59:44;14.73;;;2.63;;
80185;SDS011;69904;52.122;5.422;2024-01-25T04:02:10;10.18;;;2.20;;
80185;SDS011;69904;52.122;5.422;2024-01-25T04:04:37;12.70;;;1.20;;
80185;SDS011;69904;52.122;5.422;2024-01-25T04:07:04;6.68;;;1.23;;
80185;SDS011;69904;52.122;5.422;2024-01-25T04:09:30;9.32;;;1.50;;
80185;SDS011;69904;52.122;5.422;2024-01-25T04:11:57;13.55;;;2.05;;
80185;SDS011;69904;52.122;5.422;2024-01-25T04:14:23;13.23;;;2.17;;
80185;SDS011;69904;52.122;5.422;2024-01-25T04:16:50;6.50;;;1.73;;
80185;SDS011;69904;52.122;5.422;2024-01-25T04:19:16;10.65;;;2.05;;
80185;SDS011;69904;52.122;5.422;2024-01-25T04:21:43;8.70;;;1.95;;
80185;SDS011;69904;52.122;5.422;2024-01-25T04:24:09;9.05;;;1.67;;
80185;SDS011;69904;52.122;5.422;2024-01-25T04:26:36;7.10;;;1.45;;
80185;SDS011;69904;52.122;5.422;2024-01-25T04:29:02;11.43;;;1.88;;
80185;SDS011;69904;52.122;5.422;2024-01-25T04:31:29;5.85;;;1.45;;
80185;SDS011;69904;52.122;5.422;2024-01-25T04:33:55;9.68;;;1.55;;
80185;SDS011;69904;52.122;5.422;2024-01-25T04:36:22;11.68;;;2.38;;
80185;SDS011;69904;52.122;5.422;2024-01-25T04:38:48;6.68;;;1.70;;
80185;SDS011;69904;52.122;5.422;2024-01-25T04:41:15;7.32;;;1.80;;
80185;SDS011;69904;52.122;5.422;2024-01-25T04:43:42;14.63;;;1.77;;
80185;SDS011;69904;52.122;5.422;2024-01-25T04:46:08;9.85;;;2.35;;
80185;SDS011;69904;52.122;5.422;2024-01-25T04:48:35;8.52;;;1.10;;
80185;SDS011;69904;52.122;5.422;2024-01-25T04:51:03;9.55;;;1.75;;
80185;SDS011;69904;52.122;5.422;2024-01-25T04:53:29;11.10;;;1.90;;
80185;SDS011;69904;52.122;5.422;2024-01-25T04:55:56;7.25;;;2.13;;
80185;SDS011;69904;52.122;5.422;2024-01-25T04:58:23;14.75;;;1.60;;
80185;SDS011;69904;52.122;5.422;2024-01-25T05:00:49;11.23;;;1.80;;
80185;SDS011;69904;52.122;5.422;2024-01-25T05:03:19;7.45;;;2.10;;
80185;SDS011;69904;52.122;5.422;2024-01-25T05:05:46;14.25;;;2.20;;
80185;SDS011;69904;52.122;5.422;2024-01-25T05:08:13;13.65;;;2.05;;
80185;SDS011;69904;52.122;5.422;2024-01-25T05:10:39;9.35;;;2.20;;
80185;SDS011;69904;52.122;5.422;2024-01-25T05:13:06;5.60;;;1.48;;
80185;SDS011;69904;52.122;5.422;2024-01-25T05:18:00;8.23;;;2.22;;
80185;SDS011;69904;52.122;5.422;2024-01-25T05:20:28;5.88;;;2.08;;
80185;SDS011;69904;52.122;5.422;2024-01-25T05:23:03;7.57;;;1.77;;
80185;SDS011;69904;52.122;5.422;2024-01-25T05:27:57;16.30;;;2.00;;
80185;SDS011;69904;52.122;5.422;2024-01-25T05:30:24;7.07;;;2.45;;
80185;SDS011;69904;52.122;5.422;2024-01-25T05:32:51;11.50;;;2.45;;
80185;SDS011;69904;52.122;5.422;2024-01-25T05:35:20;13.70;;;2.03;;
80185;SDS011;69904;52.122;5.422;2024-01-25T05:37:47;14.38;;;3.80;;
80185;SDS011;69904;52.122;5.422;2024-01-25T05:40:13;12.57;;;1.92;;
80185;SDS011;69904;52.122;5.422;2024-01-25T05:42:40;8.98;;;1.98;;
80185;SDS011;69904;52.122;5.422;2024-01-25T05:45:07;6.28;;;2.28;;
80185;SDS011;69904;52.122;5.422;2024-01-25T05:47:35;13.50;;;2.28;;
80185;SDS011;69904;52.122;5.422;2024-01-25T05:50:02;12.10;;;2.85;;
80185;SDS011;69904;52.122;5.422;2024-01-25T05:52:30;12.77;;;2.70;;
80185;SDS011;69904;52.122;5.422;2024-01-25T05:54:56;4.43;;;1.50;;
80185;SDS011;69904;52.122;5.422;2024-01-25T05:57:24;9.70;;;2.33;;
80185;SDS011;69904;52.122;5.422;2024-01-25T05:59:50;15.18;;;2.45;;
80185;SDS011;69904;52.122;5.422;2024-01-25T06:02:17;8.70;;;1.52;;
80185;SDS011;69904;52.122;5.422;2024-01-25T06:04:43;13.52;;;2.08;;
80185;SDS011;69904;52.122;5.422;2024-01-25T06:07:10;7.25;;;1.70;;
80185;SDS011;69904;52.122;5.422;2024-01-25T06:09:37;15.73;;;3.22;;
80185;SDS011;69904;52.122;5.422;2024-01-25T06:12:04;11.57;;;2.47;;
80185;SDS011;69904;52.122;5.422;2024-01-25T06:14:31;11.80;;;2.85;;
80185;SDS011;69904;52.122;5.422;2024-01-25T06:16:57;8.45;;;1.88;;
80185;SDS011;69904;52.122;5.422;2024-01-25T06:19:24;12.10;;;2.45;;
80185;SDS011;69904;52.122;5.422;2024-01-25T06:21:51;12.57;;;2.30;;
80185;SDS011;69904;52.122;5.422;2024-01-25T06:24:17;9.48;;;2.88;;
80185;SDS011;69904;52.122;5.422;2024-01-25T06:26:44;17.48;;;2.25;;
80185;SDS011;69904;52.122;5.422;2024-01-25T06:29:10;10.45;;;2.30;;
80185;SDS011;69904;52.122;5.422;2024-01-25T06:31:43;14.25;;;2.90;;
80185;SDS011;69904;52.122;5.422;2024-01-25T06:34:10;7.57;;;2.15;;
80185;SDS011;69904;52.122;5.422;2024-01-25T06:36:38;8.35;;;1.98;;
80185;SDS011;69904;52.122;5.422;2024-01-25T06:39:04;11.77;;;2.15;;
80185;SDS011;69904;52.122;5.422;2024-01-25T06:41:31;6.88;;;2.05;;
80185;SDS011;69904;52.122;5.422;2024-01-25T06:43:58;6.05;;;2.42;;
80185;SDS011;69904;52.122;5.422;2024-01-25T06:46:25;14.35;;;2.10;;
80185;SDS011;69904;52.122;5.422;2024-01-25T06:48:52;9.65;;;2.00;;
80185;SDS011;69904;52.122;5.422;2024-01-25T06:51:19;10.30;;;1.60;;
80185;SDS011;69904;52.122;5.422;2024-01-25T06:53:45;5.47;;;1.63;;
80185;SDS011;69904;52.122;5.422;2024-01-25T06:56:12;9.38;;;2.17;;
80185;SDS011;69904;52.122;5.422;2024-01-25T06:58:39;8.68;;;2.22;;
80185;SDS011;69904;52.122;5.422;2024-01-25T07:01:06;13.32;;;2.38;;
80185;SDS011;69904;52.122;5.422;2024-01-25T07:03:34;8.88;;;2.92;;
80185;SDS011;69904;52.122;5.422;2024-01-25T07:06:01;10.32;;;2.58;;
80185;SDS011;69904;52.122;5.422;2024-01-25T07:08:28;8.10;;;2.75;;
80185;SDS011;69904;52.122;5.422;2024-01-25T07:10:54;7.93;;;2.47;;
80185;SDS011;69904;52.122;5.422;2024-01-25T07:13:22;4.90;;;1.90;;
80185;SDS011;69904;52.122;5.422;2024-01-25T07:15:49;7.30;;;1.73;;
80185;SDS011;69904;52.122;5.422;2024-01-25T07:18:15;7.55;;;2.22;;
80185;SDS011;69904;52.122;5.422;2024-01-25T07:20:42;12.50;;;2.65;;
80185;SDS011;69904;52.122;5.422;2024-01-25T07:23:10;10.93;;;2.92;;
80185;SDS011;69904;52.122;5.422;2024-01-25T07:25:37;13.77;;;3.58;;
80185;SDS011;69904;52.122;5.422;2024-01-25T07:28:03;9.18;;;2.38;;
80185;SDS011;69904;52.122;5.422;2024-01-25T07:30:30;6.97;;;2.72;;
80185;SDS011;69904;52.122;5.422;2024-01-25T07:32:57;11.18;;;2.38;;
80185;SDS011;69904;52.122;5.422;2024-01-25T07:37:52;7.05;;;2.55;;
80185;SDS011;69904;52.122;5.422;2024-01-25T07:40:18;7.03;;;3.05;;
80185;SDS011;69904;52.122;5.422;2024-01-25T07:42:48;11.85;;;3.72;;
80185;SDS011;69904;52.122;5.422;2024-01-25T07:45:14;4.05;;;2.40;;
80185;SDS011;69904;52.122;5.422;2024-01-25T07:47:41;8.00;;;2.67;;
80185;SDS011;69904;52.122;5.422;2024-01-25T07:50:08;11.57;;;3.08;;
80185;SDS011;69904;52.122;5.422;2024-01-25T07:52:35;8.18;;;3.53;;
80185;SDS011;69904;52.122;5.422;2024-01-25T07:55:02;10.57;;;2.30;;
80185;SDS011;69904;52.122;5.422;2024-01-25T07:57:31;8.52;;;2.50;;
80185;SDS011;69904;52.122;5.422;2024-01-25T07:59:58;8.65;;;2.80;;
80185;SDS011;69904;52.122;5.422;2024-01-25T08:02:24;11.45;;;3.30;;
80185;SDS011;69904;52.122;5.422;2024-01-25T08:04:51;11.40;;;3.00;;
80185;SDS011;69904;52.122;5.422;2024-01-25T08:07:18;10.00;;;3.60;;
80185;SDS011;69904;52.122;5.422;2024-01-25T08:09:44;17.67;;;4.38;;
80185;SDS011;69904;52.122;5.422;2024-01-25T08:12:11;10.02;;;5.55;;
80185;SDS011;69904;52.122;5.422;2024-01-25T08:14:37;13.57;;;4.10;;
80185;SDS011;69904;52.122;5.422;2024-01-25T08:17:04;14.77;;;4.35;;
80185;SDS011;69904;52.122;5.422;2024-01-25T08:19:30;8.20;;;3.72;;
80185;SDS011;69904;52.122;5.422;2024-01-25T08:21:57;23.27;;;3.78;;
80185;SDS011;69904;52.122;5.422;2024-01-25T08:24:24;18.25;;;5.18;;
80185;SDS011;69904;52.122;5.422;2024-01-25T08:26:50;7.63;;;3.53;;
80185;SDS011;69904;52.122;5.422;2024-01-25T08:29:17;9.10;;;3.08;;
80185;SDS011;69904;52.122;5.422;2024-01-25T08:31:43;19.58;;;4.25;;
80185;SDS011;69904;52.122;5.422;2024-01-25T08:34:10;15.30;;;3.83;;
80185;SDS011;69904;52.122;5.422;2024-01-25T08:36:36;9.85;;;3.42;;
80185;SDS011;69904;52.122;5.422;2024-01-25T08:39:03;11.85;;;2.42;;
80185;SDS011;69904;52.122;5.422;2024-01-25T08:41:30;10.43;;;2.78;;
80185;SDS011;69904;52.122;5.422;2024-01-25T08:43:58;7.75;;;2.63;;
80185;SDS011;69904;52.122;5.422;2024-01-25T08:46:25;9.35;;;2.50;;
80185;SDS011;69904;52.122;5.422;2024-01-25T08:48:51;9.02;;;2.97;;
80185;SDS011;69904;52.122;5.422;2024-01-25T08:51:18;9.77;;;3.25;;
80185;SDS011;69904;52.122;5.422;2024-01-25T08:53:45;7.70;;;1.58;;
80185;SDS011;69904;52.122;5.422;2024-01-25T08:56:11;10.25;;;2.60;;
80185;SDS011;69904;52.122;5.422;2024-01-25T08:58:38;11.13;;;2.45;;
80185;SDS011;69904;52.122;5.422;2024-01-25T09:01:04;12.80;;;1.80;;
80185;SDS011;69904;52.122;5.422;2024-01-25T09:03:31;9.45;;;3.00;;
80185;SDS011;69904;52.122;5.422;2024-01-25T09:05:58;9.13;;;2.67;;
80185;SDS011;69904;52.122;5.422;2024-01-25T09:08:24;7.47;;;1.80;;
80185;SDS011;69904;52.122;5.422;2024-01-25T09:10:51;7.43;;;2.03;;
80185;SDS011;69904;52.122;5.422;2024-01-25T09:13:17;8.23;;;2.17;;
80185;SDS011;69904;52.122;5.422;2024-01-25T09:15:44;9.73;;;2.15;;
80185;SDS011;69904;52.122;5.422;2024-01-25T09:18:12;7.75;;;2.50;;
80185;SDS011;69904;52.122;5.422;2024-01-25T09:20:39;13.23;;;2.55;;
80185;SDS011;69904;52.122;5.422;2024-01-25T09:23:07;11.50;;;2.50;;
80185;SDS011;69904;52.122;5.422;2024-01-25T09:25:33;14.00;;;2.88;;
80185;SDS011;69904;52.122;5.422;2024-01-25T09:28:00;14.95;;;2.63;;
80185;SDS011;69904;52.122;5.422;2024-01-25T09:30:27;4.05;;;2.63;;
80185;SDS011;69904;52.122;5.422;2024-01-25T09:32:55;17.23;;;3.03;;
80185;SDS011;69904;52.122;5.422;2024-01-25T09:35:22;13.50;;;2.90;;
80185;SDS011;69904;52.122;5.422;2024-01-25T09:37:48;3.92;;;1.98;;
80185;SDS011;69904;52.122;5.422;2024-01-25T09:40:19;8.80;;;2.67;;
80185;SDS011;69904;52.122;5.422;2024-01-25T09:42:48;9.40;;;2.55;;
80185;SDS011;69904;52.122;5.422;2024-01-25T09:45:16;13.43;;;2.88;;
80185;SDS011;69904;52.122;5.422;2024-01-25T09:47:44;9.23;;;2.25;;
80185;SDS011;69904;52.122;5.422;2024-01-25T09:50:12;9.30;;;3.20;;
80185;SDS011;69904;52.122;5.422;2024-01-25T09:52:39;16.88;;;2.80;;
80185;SDS011;69904;52.122;5.422;2024-01-25T09:55:16;11.90;;;2.50;;
80185;SDS011;69904;52.122;5.422;2024-01-25T09:57:46;9.65;;;2.75;;
80185;SDS011;69904;52.122;5.422;2024-01-25T10:00:15;13.05;;;2.83;;
80185;SDS011;69904;52.122;5.422;2024-01-25T10:02:43;10.25;;;2.78;;
80185;SDS011;69904;52.122;5.422;2024-01-25T10:05:09;9.52;;;2.40;;
80185;SDS011;69904;52.122;5.422;2024-01-25T10:07:37;10.57;;;2.83;;
80185;SDS011;69904;52.122;5.422;2024-01-25T10:10:08;10.57;;;2.42;;
80185;SDS011;69904;52.122;5.422;2024-01-25T10:12:36;13.88;;;2.78;;
80185;SDS011;69904;52.122;5.422;2024-01-25T10:15:04;12.18;;;1.92;;
80185;SDS011;69904;52.122;5.422;2024-01-25T10:17:31;14.68;;;2.83;;
80185;SDS011;69904;52.122;5.422;2024-01-25T10:20:18;21.52;;;4.47;;
80185;SDS011;69904;52.122;5.422;2024-01-25T10:22:47;12.75;;;3.30;;
80185;SDS011;69904;52.122;5.422;2024-01-25T10:25:14;9.10;;;2.33;;
80185;SDS011;69904;52.122;5.422;2024-01-25T10:27:41;7.93;;;2.08;;
80185;SDS011;69904;52.122;5.422;2024-01-25T10:30:09;11.25;;;2.60;;
80185;SDS011;69904;52.122;5.422;2024-01-25T10:32:37;15.70;;;3.05;;
80185;SDS011;69904;52.122;5.422;2024-01-25T10:35:05;18.83;;;4.25;;
80185;SDS011;69904;52.122;5.422;2024-01-25T10:37:34;11.70;;;3.28;;
80185;SDS011;69904;52.122;5.422;2024-01-25T10:40:04;15.10;;;3.30;;
80185;SDS011;69904;52.122;5.422;2024-01-25T10:42:32;8.45;;;2.75;;
80185;SDS011;69904;52.122;5.422;2024-01-25T10:44:58;13.02;;;2.63;;
80185;SDS011;69904;52.122;5.422;2024-01-25T10:47:25;6.20;;;2.00;;
80185;SDS011;69904;52.122;5.422;2024-01-25T10:49:53;15.65;;;3.90;;
80185;SDS011;69904;52.122;5.422;2024-01-25T10:52:20;7.45;;;2.63;;
80185;SDS011;69904;52.122;5.422;2024-01-25T10:54:47;8.93;;;2.85;;
80185;SDS011;69904;52.122;5.422;2024-01-25T10:57:13;14.32;;;3.50;;
80185;SDS011;69904;52.122;5.422;2024-01-25T10:59:40;13.30;;;4.22;;
80185;SDS011;69904;52.122;5.422;2024-01-25T11:02:07;7.95;;;2.47;;
80185;SDS011;69904;52.122;5.422;2024-01-25T11:04:34;15.60;;;3.40;;
80185;SDS011;69904;52.122;5.422;2024-01-25T11:07:07;11.90;;;3.22;;
80185;SDS011;69904;52.122;5.422;2024-01-25T11:09:38;18.60;;;3.55;;
80185;SDS011;69904;52.122;5.422;2024-01-25T11:12:11;6.32;;;2.35;;
80185;SDS011;69904;52.122;5.422;2024-01-25T11:14:39;13.57;;;2.90;;
80185;SDS011;69904;52.122;5.422;2024-01-25T11:17:15;18.02;;;2.58;;
80185;SDS011;69904;52.122;5.422;2024-01-25T11:19:45;10.50;;;3.03;;
80185;SDS011;69904;52.122;5.422;2024-01-25T11:22:12;13.25;;;3.50;;
80185;SDS011;69904;52.122;5.422;2024-01-25T11:24:38;9.90;;;2.17;;
80185;SDS011;69904;52.122;5.422;2024-01-25T11:27:05;12.95;;;3.00;;
80185;SDS011;69904;52.122;5.422;2024-01-25T11:29:32;17.52;;;3.83;;
80185;SDS011;69904;52.122;5.422;2024-01-25T11:31:59;10.70;;;2.53;;
80185;SDS011;69904;52.122;5.422;2024-01-25T11:34:25;11.00;;;3.05;;
80185;SDS011;69904;52.122;5.422;2024-01-25T11:36:52;11.73;;;2.88;;
80185;SDS011;69904;52.122;5.422;2024-01-25T11:39:19;17.58;;;4.85;;
80185;SDS011;69904;52.122;5.422;2024-01-25T11:41:45;6.47;;;2.97;;
80185;SDS011;69904;52.122;5.422;2024-01-25T11:44:13;13.20;;;3.25;;
80185;SDS011;69904;52.122;5.422;2024-01-25T11:46:42;14.70;;;3.28;;
80185;SDS011;69904;52.122;5.422;2024-01-25T11:49:09;14.38;;;4.00;;
80185;SDS011;69904;52.122;5.422;2024-01-25T11:51:36;9.73;;;3.50;;
80185;SDS011;69904;52.122;5.422;2024-01-25T11:54:03;15.93;;;2.97;;
80185;SDS011;69904;52.122;5.422;2024-01-25T11:56:33;11.52;;;3.28;;
80185;SDS011;69904;52.122;5.422;2024-01-25T11:59:04;22.33;;;4.40;;
80185;SDS011;69904;52.122;5.422;2024-01-25T12:01:31;16.85;;;3.20;;
80185;SDS011;69904;52.122;5.422;2024-01-25T12:03:58;14.02;;;3.92;;
80185;SDS011;69904;52.122;5.422;2024-01-25T12:06:25;11.57;;;3.20;;
80185;SDS011;69904;52.122;5.422;2024-01-25T12:08:52;14.07;;;2.55;;
80185;SDS011;69904;52.122;5.422;2024-01-25T12:11:18;18.50;;;3.63;;
80185;SDS011;69904;52.122;5.422;2024-01-25T12:13:46;21.27;;;3.28;;
80185;SDS011;69904;52.122;5.422;2024-01-25T12:16:13;8.60;;;3.30;;
80185;SDS011;69904;52.122;5.422;2024-01-25T12:18:40;16.48;;;3.53;;
80185;SDS011;69904;52.122;5.422;2024-01-25T12:21:09;13.20;;;3.55;;
80185;SDS011;69904;52.122;5.422;2024-01-25T12:23:37;8.75;;;3.53;;
80185;SDS011;69904;52.122;5.422;2024-01-25T12:26:06;14.77;;;3.85;;
80185;SDS011;69904;52.122;5.422;2024-01-25T12:28:34;15.95;;;3.70;;
80185;SDS011;69904;52.122;5.422;2024-01-25T12:31:02;11.52;;;3.40;;
80185;SDS011;69904;52.122;5.422;2024-01-25T12:33:30;9.40;;;2.75;;
80185;SDS011;69904;52.122;5.422;2024-01-25T12:35:57;15.63;;;3.72;;
80185;SDS011;69904;52.122;5.422;2024-01-25T12:38:25;15.93;;;4.45;;
80185;SDS011;69904;52.122;5.422;2024-01-25T12:40:52;10.10;;;3.20;;
80185;SDS011;69904;52.122;5.422;2024-01-25T12:43:19;10.20;;;3.50;;
80185;SDS011;69904;52.122;5.422;2024-01-25T12:45:48;14.48;;;3.55;;
80185;SDS011;69904;52.122;5.422;2024-01-25T12:48:17;16.55;;;4.50;;
80185;SDS011;69904;52.122;5.422;2024-01-25T12:50:43;19.17;;;4.30;;
80185;SDS011;69904;52.122;5.422;2024-01-25T12:53:10;19.05;;;3.92;;
80185;SDS011;69904;52.122;5.422;2024-01-25T12:55:38;15.88;;;4.45;;
80185;SDS011;69904;52.122;5.422;2024-01-25T12:58:05;16.67;;;4.45;;
80185;SDS011;69904;52.122;5.422;2024-01-25T13:00:31;18.55;;;4.22;;
80185;SDS011;69904;52.122;5.422;2024-01-25T13:02:59;21.33;;;4.95;;
80185;SDS011;69904;52.122;5.422;2024-01-25T13:05:30;16.15;;;3.53;;
80185;SDS011;69904;52.122;5.422;2024-01-25T13:08:01;18.02;;;3.90;;
80185;SDS011;69904;52.122;5.422;2024-01-25T13:10:28;19.88;;;4.25;;
80185;SDS011;69904;52.122;5.422;2024-01-25T13:12:55;15.35;;;3.63;;
80185;SDS011;69904;52.122;5.422;2024-01-25T13:15:21;17.05;;;4.07;;
80185;SDS011;69904;52.122;5.422;2024-01-25T13:17:48;15.18;;;3.53;;
80185;SDS011;69904;52.122;5.422;2024-01-25T13:20:14;17.38;;;3.90;;
80185;SDS011;69904;52.122;5.422;2024-01-25T13:22:41;10.75;;;3.55;;
80185;SDS011;69904;52.122;5.422;2024-01-25T13:25:08;18.25;;;3.80;;
80185;SDS011;69904;52.122;5.422;2024-01-25T13:27:36;17.40;;;4.35;;
80185;SDS011;69904;52.122;5.422;2024-01-25T13:30:03;17.17;;;3.80;;
80185;SDS011;69904;52.122;5.422;2024-01-25T13:32:31;12.55;;;3.58;;
80185;SDS011;69904;52.122;5.422;2024-01-25T13:34:57;12.70;;;4.00;;
80185;SDS011;69904;52.122;5.422;2024-01-25T13:37:24;17.55;;;3.80;;
80185;SDS011;69904;52.122;5.422;2024-01-25T13:39:50;13.50;;;4.22;;
80185;SDS011;69904;52.122;5.422;2024-01-25T13:42:17;12.00;;;4.03;;
80185;SDS011;69904;52.122;5.422;2024-01-25T13:44:43;13.27;;;4.20;;
80185;SDS011;69904;52.122;5.422;2024-01-25T13:47:10;15.40;;;5.72;;
80185;SDS011;69904;52.122;5.422;2024-01-25T13:49:37;14.35;;;3.92;;
80185;SDS011;69904;52.122;5.422;2024-01-25T13:52:04;17.63;;;4.82;;
80185;SDS011;69904;52.122;5.422;2024-01-25T13:54:30;14.23;;;4.30;;
80185;SDS011;69904;52.122;5.422;2024-01-25T13:56:57;11.00;;;3.67;;
80185;SDS011;69904;52.122;5.422;2024-01-25T13:59:23;13.13;;;4.20;;
80185;SDS011;69904;52.122;5.422;2024-01-25T14:01:51;19.15;;;5.05;;
80185;SDS011;69904;52.122;5.422;2024-01-25T14:04:18;26.60;;;5.80;;
80185;SDS011;69904;52.122;5.422;2024-01-25T14:06:45;17.30;;;4.57;;
80185;SDS011;69904;52.122;5.422;2024-01-25T14:09:12;18.92;;;4.70;;
80185;SDS011;69904;52.122;5.422;2024-01-25T14:16:32;19.67;;;4.82;;
80185;SDS011;69904;52.122;5.422;2024-01-25T14:18:59;13.13;;;3.50;;
80185;SDS011;69904;52.122;5.422;2024-01-25T14:21:26;13.30;;;4.50;;
80185;SDS011;69904;52.122;5.422;2024-01-25T14:23:52;17.23;;;5.82;;
80185;SDS011;69904;52.122;5.422;2024-01-25T14:26:19;16.40;;;4.78;;
80185;SDS011;69904;52.122;5.422;2024-01-25T14:28:45;13.48;;;3.97;;
80185;SDS011;69904;52.122;5.422;2024-01-25T14:31:12;12.13;;;4.50;;
80185;SDS011;69904;52.122;5.422;2024-01-25T14:33:39;16.45;;;5.30;;
80185;SDS011;69904;52.122;5.422;2024-01-25T14:36:11;25.17;;;5.63;;
80185;SDS011;69904;52.122;5.422;2024-01-25T14:38:40;24.73;;;5.07;;
80185;SDS011;69904;52.122;5.422;2024-01-25T14:41:10;23.08;;;5.22;;
80185;SDS011;69904;52.122;5.422;2024-01-25T14:43:37;11.32;;;4.38;;
80185;SDS011;69904;52.122;5.422;2024-01-25T14:46:05;11.35;;;4.30;;
80185;SDS011;69904;52.122;5.422;2024-01-25T14:48:33;15.15;;;5.15;;
80185;SDS011;69904;52.122;5.422;2024-01-25T14:51:00;17.80;;;5.70;;
80185;SDS011;69904;52.122;5.422;2024-01-25T14:53:26;22.92;;;5.93;;